sensor_id;sensor_type;location;lat;lon;timestamp;P1;durP1;ratioP1;P2;durP2;ratioP2
4049;SDS011;2039;50.894;6.888;2022-07-23T00:00:49;82.70;;;28.60;;
4049;SDS011;2039;50.894;6.888;2022-07-23T00:03:15;87.00;;;33.23;;
4049;SDS011;2039;50.894;6.888;2022-07-23T00:05:41;85.50;;;25.13;;
4049;SDS011;2039;50.894;6.888;2022-07-23T00:08:07;83.10;;;24.67;;
4049;SDS011;2039;50.894;6.888;2022-07-23T00:10:34;83.07;;;23.13;;
4049;SDS011;2039;50.894;6.888;2022-07-23T00:12:59;82.70;;;25.50;;
4049;SDS011;2039;50.894;6.888;2022-07-23T00:15:25;79.50;;;21.77;;
4049;SDS011;2039;50.894;6.888;2022-07-23T00:17:51;81.57;;;23.20;;
4049;SDS011;2039;50.894;6.888;2022-07-23T00:20:17;83.13;;;22.30;;
4049;SDS011;2039;50.894;6.888;2022-07-23T00:22:53;85.30;;;20.60;;
4049;SDS011;2039;50.894;6.888;2022-07-23T00:25:20;78.87;;;17.00;;
4049;SDS011;2039;50.894;6.888;2022-07-23T00:27:47;83.63;;;18.33;;
4049;SDS011;2039;50.894;6.888;2022-07-23T00:30:13;84.50;;;21.50;;
4049;SDS011;2039;50.894;6.888;2022-07-23T00:32:49;84.87;;;20.87;;
4049;SDS011;2039;50.894;6.888;2022-07-23T00:35:18;80.47;;;19.87;;
4049;SDS011;2039;50.894;6.888;2022-07-23T00:37:46;79.97;;;17.60;;
4049;SDS011;2039;50.894;6.888;2022-07-23T00:40:12;79.57;;;14.57;;
4049;SDS011;2039;50.894;6.888;2022-07-23T00:42:38;81.83;;;14.67;;
4049;SDS011;2039;50.894;6.888;2022-07-23T00:45:05;76.53;;;14.23;;
4049;SDS011;2039;50.894;6.888;2022-07-23T00:47:31;78.43;;;14.30;;
4049;SDS011;2039;50.894;6.888;2022-07-23T00:49:56;75.40;;;13.57;;
4049;SDS011;2039;50.894;6.888;2022-07-23T00:52:22;78.60;;;14.77;;
4049;SDS011;2039;50.894;6.888;2022-07-23T00:54:48;76.17;;;14.27;;
4049;SDS011;2039;50.894;6.888;2022-07-23T00:57:14;76.03;;;14.30;;
4049;SDS011;2039;50.894;6.888;2022-07-23T00:59:40;72.70;;;12.67;;
4049;SDS011;2039;50.894;6.888;2022-07-23T01:02:06;76.17;;;11.90;;
4049;SDS011;2039;50.894;6.888;2022-07-23T01:04:32;75.60;;;13.13;;
4049;SDS011;2039;50.894;6.888;2022-07-23T01:06:58;77.27;;;14.10;;
4049;SDS011;2039;50.894;6.888;2022-07-23T01:09:24;77.90;;;14.80;;
4049;SDS011;2039;50.894;6.888;2022-07-23T01:11:51;79.23;;;18.60;;
4049;SDS011;2039;50.894;6.888;2022-07-23T01:14:18;81.40;;;20.23;;
4049;SDS011;2039;50.894;6.888;2022-07-23T01:16:48;78.60;;;21.43;;
4049;SDS011;2039;50.894;6.888;2022-07-23T01:19:15;79.57;;;22.40;;
4049;SDS011;2039;50.894;6.888;2022-07-23T01:21:42;82.17;;;26.53;;
4049;SDS011;2039;50.894;6.888;2022-07-23T01:24:13;80.33;;;25.80;;
4049;SDS011;2039;50.894;6.888;2022-07-23T01:26:43;84.67;;;41.30;;
4049;SDS011;2039;50.894;6.888;2022-07-23T01:29:10;88.20;;;46.03;;
4049;SDS011;2039;50.894;6.888;2022-07-23T01:31:36;84.90;;;38.03;;
4049;SDS011;2039;50.894;6.888;2022-07-23T01:34:02;94.57;;;52.70;;
4049;SDS011;2039;50.894;6.888;2022-07-23T01:36:28;92.07;;;46.00;;
4049;SDS011;2039;50.894;6.888;2022-07-23T01:38:53;94.37;;;54.33;;
4049;SDS011;2039;50.894;6.888;2022-07-23T01:41:19;99.77;;;56.53;;
4049;SDS011;2039;50.894;6.888;2022-07-23T01:43:47;102.97;;;70.37;;
4049;SDS011;2039;50.894;6.888;2022-07-23T01:46:13;99.20;;;71.80;;
4049;SDS011;2039;50.894;6.888;2022-07-23T01:48:39;98.23;;;73.27;;
4049;SDS011;2039;50.894;6.888;2022-07-23T01:51:05;99.20;;;72.53;;
4049;SDS011;2039;50.894;6.888;2022-07-23T01:53:31;95.57;;;64.60;;
4049;SDS011;2039;50.894;6.888;2022-07-23T01:55:57;98.07;;;73.03;;
4049;SDS011;2039;50.894;6.888;2022-07-23T01:58:24;95.03;;;68.17;;
4049;SDS011;2039;50.894;6.888;2022-07-23T02:00:50;94.10;;;59.13;;
4049;SDS011;2039;50.894;6.888;2022-07-23T02:03:16;94.90;;;67.30;;
4049;SDS011;2039;50.894;6.888;2022-07-23T02:05:41;97.73;;;62.37;;
4049;SDS011;2039;50.894;6.888;2022-07-23T02:08:07;88.90;;;55.50;;
4049;SDS011;2039;50.894;6.888;2022-07-23T02:10:33;90.43;;;60.33;;
4049;SDS011;2039;50.894;6.888;2022-07-23T02:12:58;93.33;;;57.60;;
4049;SDS011;2039;50.894;6.888;2022-07-23T02:15:24;91.40;;;60.03;;
4049;SDS011;2039;50.894;6.888;2022-07-23T02:17:50;89.73;;;55.33;;
4049;SDS011;2039;50.894;6.888;2022-07-23T02:20:15;91.00;;;58.37;;
4049;SDS011;2039;50.894;6.888;2022-07-23T02:22:41;87.60;;;47.90;;
4049;SDS011;2039;50.894;6.888;2022-07-23T02:25:09;89.90;;;53.60;;
4049;SDS011;2039;50.894;6.888;2022-07-23T02:27:35;91.30;;;52.57;;
4049;SDS011;2039;50.894;6.888;2022-07-23T02:30:02;95.40;;;39.17;;
4049;SDS011;2039;50.894;6.888;2022-07-23T02:32:28;89.03;;;37.13;;
4049;SDS011;2039;50.894;6.888;2022-07-23T02:34:54;86.03;;;40.60;;
4049;SDS011;2039;50.894;6.888;2022-07-23T02:40:18;79.10;;;29.60;;
4049;SDS011;2039;50.894;6.888;2022-07-23T02:42:44;80.77;;;29.97;;
4049;SDS011;2039;50.894;6.888;2022-07-23T02:45:09;85.17;;;42.07;;
4049;SDS011;2039;50.894;6.888;2022-07-23T02:47:35;83.00;;;30.70;;
4049;SDS011;2039;50.894;6.888;2022-07-23T02:50:01;80.30;;;27.87;;
4049;SDS011;2039;50.894;6.888;2022-07-23T02:52:30;78.33;;;24.73;;
4049;SDS011;2039;50.894;6.888;2022-07-23T02:54:55;85.47;;;24.60;;
4049;SDS011;2039;50.894;6.888;2022-07-23T02:57:21;75.07;;;15.63;;
4049;SDS011;2039;50.894;6.888;2022-07-23T02:59:47;79.40;;;15.27;;
4049;SDS011;2039;50.894;6.888;2022-07-23T03:02:12;75.97;;;15.13;;
4049;SDS011;2039;50.894;6.888;2022-07-23T03:04:38;76.80;;;15.47;;
4049;SDS011;2039;50.894;6.888;2022-07-23T03:07:04;80.10;;;17.30;;
4049;SDS011;2039;50.894;6.888;2022-07-23T03:09:29;76.03;;;17.30;;
4049;SDS011;2039;50.894;6.888;2022-07-23T03:11:55;75.83;;;15.47;;
4049;SDS011;2039;50.894;6.888;2022-07-23T03:14:21;76.60;;;14.90;;
4049;SDS011;2039;50.894;6.888;2022-07-23T03:16:46;73.50;;;16.10;;
4049;SDS011;2039;50.894;6.888;2022-07-23T03:19:14;79.80;;;15.43;;
4049;SDS011;2039;50.894;6.888;2022-07-23T03:21:40;75.27;;;14.40;;
4049;SDS011;2039;50.894;6.888;2022-07-23T03:24:09;77.07;;;16.00;;
4049;SDS011;2039;50.894;6.888;2022-07-23T03:26:35;74.50;;;14.63;;
4049;SDS011;2039;50.894;6.888;2022-07-23T03:29:01;76.80;;;14.60;;
4049;SDS011;2039;50.894;6.888;2022-07-23T03:31:28;77.03;;;14.93;;
4049;SDS011;2039;50.894;6.888;2022-07-23T03:33:57;76.77;;;14.70;;
4049;SDS011;2039;50.894;6.888;2022-07-23T03:36:23;83.30;;;17.10;;
4049;SDS011;2039;50.894;6.888;2022-07-23T03:38:49;80.47;;;18.00;;
4049;SDS011;2039;50.894;6.888;2022-07-23T03:41:16;77.90;;;19.90;;
4049;SDS011;2039;50.894;6.888;2022-07-23T03:43:42;78.03;;;19.00;;
4049;SDS011;2039;50.894;6.888;2022-07-23T03:46:07;77.07;;;19.80;;
4049;SDS011;2039;50.894;6.888;2022-07-23T03:48:33;81.17;;;23.07;;
4049;SDS011;2039;50.894;6.888;2022-07-23T03:50:58;76.03;;;20.37;;
4049;SDS011;2039;50.894;6.888;2022-07-23T03:53:24;83.70;;;22.93;;
4049;SDS011;2039;50.894;6.888;2022-07-23T03:55:50;76.60;;;17.23;;
4049;SDS011;2039;50.894;6.888;2022-07-23T03:58:16;77.20;;;16.93;;
4049;SDS011;2039;50.894;6.888;2022-07-23T04:00:41;76.57;;;20.10;;
4049;SDS011;2039;50.894;6.888;2022-07-23T04:03:07;78.17;;;16.57;;
4049;SDS011;2039;50.894;6.888;2022-07-23T04:05:33;74.90;;;15.10;;
4049;SDS011;2039;50.894;6.888;2022-07-23T04:07:58;76.90;;;14.40;;
4049;SDS011;2039;50.894;6.888;2022-07-23T04:10:24;80.63;;;13.63;;
4049;SDS011;2039;50.894;6.888;2022-07-23T04:12:50;76.57;;;13.73;;
4049;SDS011;2039;50.894;6.888;2022-07-23T04:15:15;75.83;;;11.90;;
4049;SDS011;2039;50.894;6.888;2022-07-23T04:17:41;74.00;;;13.27;;
4049;SDS011;2039;50.894;6.888;2022-07-23T04:20:11;72.77;;;12.90;;
4049;SDS011;2039;50.894;6.888;2022-07-23T04:22:37;72.90;;;11.93;;
4049;SDS011;2039;50.894;6.888;2022-07-23T04:25:03;74.60;;;12.27;;
4049;SDS011;2039;50.894;6.888;2022-07-23T04:27:29;74.13;;;13.10;;
4049;SDS011;2039;50.894;6.888;2022-07-23T04:29:55;73.23;;;12.10;;
4049;SDS011;2039;50.894;6.888;2022-07-23T04:32:22;74.20;;;11.30;;
4049;SDS011;2039;50.894;6.888;2022-07-23T04:34:47;78.10;;;13.43;;
4049;SDS011;2039;50.894;6.888;2022-07-23T04:37:16;72.77;;;10.87;;
4049;SDS011;2039;50.894;6.888;2022-07-23T04:39:42;75.80;;;13.50;;
4049;SDS011;2039;50.894;6.888;2022-07-23T04:42:07;73.97;;;12.70;;
4049;SDS011;2039;50.894;6.888;2022-07-23T04:44:33;72.80;;;11.47;;
4049;SDS011;2039;50.894;6.888;2022-07-23T04:46:59;72.47;;;12.07;;
4049;SDS011;2039;50.894;6.888;2022-07-23T04:49:24;76.60;;;13.00;;
4049;SDS011;2039;50.894;6.888;2022-07-23T04:51:50;76.87;;;13.60;;
4049;SDS011;2039;50.894;6.888;2022-07-23T04:54:16;74.10;;;14.13;;
4049;SDS011;2039;50.894;6.888;2022-07-23T04:56:42;78.30;;;16.90;;
4049;SDS011;2039;50.894;6.888;2022-07-23T04:59:08;79.90;;;20.10;;
4049;SDS011;2039;50.894;6.888;2022-07-23T05:01:34;84.00;;;29.80;;
4049;SDS011;2039;50.894;6.888;2022-07-23T05:03:59;81.00;;;27.07;;
4049;SDS011;2039;50.894;6.888;2022-07-23T05:06:26;79.90;;;26.60;;
4049;SDS011;2039;50.894;6.888;2022-07-23T05:08:51;80.80;;;27.87;;
4049;SDS011;2039;50.894;6.888;2022-07-23T05:11:17;77.27;;;19.30;;
4049;SDS011;2039;50.894;6.888;2022-07-23T05:13:43;78.53;;;17.80;;
4049;SDS011;2039;50.894;6.888;2022-07-23T05:16:08;79.37;;;17.37;;
4049;SDS011;2039;50.894;6.888;2022-07-23T05:18:34;76.80;;;15.80;;
4049;SDS011;2039;50.894;6.888;2022-07-23T05:21:00;76.73;;;16.90;;
4049;SDS011;2039;50.894;6.888;2022-07-23T05:23:25;77.77;;;14.07;;
4049;SDS011;2039;50.894;6.888;2022-07-23T05:25:51;82.97;;;16.03;;
4049;SDS011;2039;50.894;6.888;2022-07-23T05:28:17;82.83;;;17.13;;
4049;SDS011;2039;50.894;6.888;2022-07-23T05:30:42;83.10;;;16.00;;
4049;SDS011;2039;50.894;6.888;2022-07-23T05:33:08;84.90;;;16.60;;
4049;SDS011;2039;50.894;6.888;2022-07-23T05:35:34;80.47;;;16.30;;
4049;SDS011;2039;50.894;6.888;2022-07-23T05:37:59;80.63;;;14.13;;
4049;SDS011;2039;50.894;6.888;2022-07-23T05:40:25;79.40;;;13.73;;
4049;SDS011;2039;50.894;6.888;2022-07-23T05:42:51;81.07;;;16.27;;
4049;SDS011;2039;50.894;6.888;2022-07-23T05:45:16;86.00;;;16.10;;
4049;SDS011;2039;50.894;6.888;2022-07-23T05:50:09;77.87;;;14.30;;
4049;SDS011;2039;50.894;6.888;2022-07-23T05:52:35;83.23;;;16.97;;
4049;SDS011;2039;50.894;6.888;2022-07-23T05:55:01;79.13;;;16.43;;
4049;SDS011;2039;50.894;6.888;2022-07-23T05:57:26;87.90;;;15.30;;
4049;SDS011;2039;50.894;6.888;2022-07-23T05:59:55;81.30;;;14.97;;
4049;SDS011;2039;50.894;6.888;2022-07-23T06:02:20;79.40;;;16.10;;
4049;SDS011;2039;50.894;6.888;2022-07-23T06:04:46;83.30;;;17.00;;
4049;SDS011;2039;50.894;6.888;2022-07-23T06:07:12;84.03;;;21.27;;
4049;SDS011;2039;50.894;6.888;2022-07-23T06:09:40;84.20;;;23.93;;
4049;SDS011;2039;50.894;6.888;2022-07-23T06:12:06;91.50;;;25.77;;
4049;SDS011;2039;50.894;6.888;2022-07-23T06:14:32;88.20;;;25.17;;
4049;SDS011;2039;50.894;6.888;2022-07-23T06:16:58;86.43;;;27.50;;
4049;SDS011;2039;50.894;6.888;2022-07-23T06:19:24;87.50;;;26.50;;
4049;SDS011;2039;50.894;6.888;2022-07-23T06:21:50;84.57;;;24.33;;
4049;SDS011;2039;50.894;6.888;2022-07-23T06:24:16;90.07;;;29.47;;
4049;SDS011;2039;50.894;6.888;2022-07-23T06:26:42;87.73;;;25.03;;
4049;SDS011;2039;50.894;6.888;2022-07-23T06:29:07;86.37;;;27.80;;
4049;SDS011;2039;50.894;6.888;2022-07-23T06:31:33;83.30;;;24.83;;
4049;SDS011;2039;50.894;6.888;2022-07-23T06:33:59;83.40;;;24.37;;
4049;SDS011;2039;50.894;6.888;2022-07-23T06:36:25;85.17;;;23.33;;
4049;SDS011;2039;50.894;6.888;2022-07-23T06:38:50;87.00;;;21.93;;
4049;SDS011;2039;50.894;6.888;2022-07-23T06:41:34;83.33;;;23.80;;
4049;SDS011;2039;50.894;6.888;2022-07-23T06:44:23;85.57;;;22.60;;
4049;SDS011;2039;50.894;6.888;2022-07-23T06:46:49;82.07;;;23.07;;
4049;SDS011;2039;50.894;6.888;2022-07-23T06:49:15;84.80;;;23.77;;
4049;SDS011;2039;50.894;6.888;2022-07-23T06:51:41;82.37;;;22.67;;
4049;SDS011;2039;50.894;6.888;2022-07-23T06:54:06;87.50;;;25.83;;
4049;SDS011;2039;50.894;6.888;2022-07-23T06:56:33;79.47;;;22.40;;
4049;SDS011;2039;50.894;6.888;2022-07-23T06:58:58;89.83;;;22.67;;
4049;SDS011;2039;50.894;6.888;2022-07-23T07:01:24;85.30;;;24.77;;
4049;SDS011;2039;50.894;6.888;2022-07-23T07:03:50;84.53;;;23.70;;
4049;SDS011;2039;50.894;6.888;2022-07-23T07:06:16;79.97;;;20.57;;
4049;SDS011;2039;50.894;6.888;2022-07-23T07:08:45;84.93;;;21.97;;
4049;SDS011;2039;50.894;6.888;2022-07-23T07:11:10;77.27;;;16.80;;
4049;SDS011;2039;50.894;6.888;2022-07-23T07:13:36;79.23;;;22.47;;
4049;SDS011;2039;50.894;6.888;2022-07-23T07:16:03;80.67;;;20.77;;
4049;SDS011;2039;50.894;6.888;2022-07-23T07:18:29;78.83;;;21.13;;
4049;SDS011;2039;50.894;6.888;2022-07-23T07:20:56;78.30;;;22.20;;
4049;SDS011;2039;50.894;6.888;2022-07-23T07:23:25;83.00;;;22.27;;
4049;SDS011;2039;50.894;6.888;2022-07-23T07:25:51;81.00;;;19.17;;
4049;SDS011;2039;50.894;6.888;2022-07-23T07:28:16;81.40;;;18.40;;
4049;SDS011;2039;50.894;6.888;2022-07-23T07:30:42;79.60;;;17.30;;
4049;SDS011;2039;50.894;6.888;2022-07-23T07:33:08;75.30;;;15.47;;
4049;SDS011;2039;50.894;6.888;2022-07-23T07:35:33;75.40;;;15.30;;
4049;SDS011;2039;50.894;6.888;2022-07-23T07:37:59;75.93;;;16.00;;
4049;SDS011;2039;50.894;6.888;2022-07-23T07:40:26;75.57;;;14.20;;
4049;SDS011;2039;50.894;6.888;2022-07-23T07:42:52;74.27;;;12.83;;
4049;SDS011;2039;50.894;6.888;2022-07-23T07:45:19;74.77;;;13.07;;
4049;SDS011;2039;50.894;6.888;2022-07-23T07:47:46;73.70;;;14.03;;
4049;SDS011;2039;50.894;6.888;2022-07-23T07:50:12;76.90;;;13.33;;
4049;SDS011;2039;50.894;6.888;2022-07-23T07:52:38;80.57;;;14.53;;
4049;SDS011;2039;50.894;6.888;2022-07-23T07:55:04;74.30;;;13.93;;
4049;SDS011;2039;50.894;6.888;2022-07-23T07:57:32;80.27;;;15.10;;
4049;SDS011;2039;50.894;6.888;2022-07-23T07:59:58;76.50;;;14.77;;
4049;SDS011;2039;50.894;6.888;2022-07-23T08:02:23;77.40;;;15.23;;
4049;SDS011;2039;50.894;6.888;2022-07-23T08:04:49;76.80;;;14.93;;
4049;SDS011;2039;50.894;6.888;2022-07-23T08:07:15;80.30;;;18.57;;
4049;SDS011;2039;50.894;6.888;2022-07-23T08:09:41;76.03;;;15.53;;
4049;SDS011;2039;50.894;6.888;2022-07-23T08:12:07;76.17;;;14.90;;
4049;SDS011;2039;50.894;6.888;2022-07-23T08:14:33;80.83;;;20.33;;
4049;SDS011;2039;50.894;6.888;2022-07-23T08:16:58;80.77;;;23.33;;
4049;SDS011;2039;50.894;6.888;2022-07-23T08:19:24;79.00;;;20.00;;
4049;SDS011;2039;50.894;6.888;2022-07-23T08:21:51;79.73;;;18.27;;
4049;SDS011;2039;50.894;6.888;2022-07-23T08:24:20;82.90;;;16.40;;
4049;SDS011;2039;50.894;6.888;2022-07-23T08:26:46;79.87;;;23.27;;
4049;SDS011;2039;50.894;6.888;2022-07-23T08:29:11;80.20;;;20.07;;
4049;SDS011;2039;50.894;6.888;2022-07-23T08:31:37;80.90;;;20.40;;
4049;SDS011;2039;50.894;6.888;2022-07-23T08:34:05;80.30;;;22.30;;
4049;SDS011;2039;50.894;6.888;2022-07-23T08:36:30;86.30;;;22.60;;
4049;SDS011;2039;50.894;6.888;2022-07-23T08:38:58;82.83;;;20.87;;
4049;SDS011;2039;50.894;6.888;2022-07-23T08:41:24;82.00;;;21.27;;
4049;SDS011;2039;50.894;6.888;2022-07-23T08:43:50;83.47;;;23.47;;
4049;SDS011;2039;50.894;6.888;2022-07-23T08:46:17;81.87;;;23.67;;
4049;SDS011;2039;50.894;6.888;2022-07-23T08:48:44;82.30;;;19.07;;
4049;SDS011;2039;50.894;6.888;2022-07-23T08:51:13;80.80;;;19.33;;
4049;SDS011;2039;50.894;6.888;2022-07-23T08:53:39;82.17;;;19.20;;
4049;SDS011;2039;50.894;6.888;2022-07-23T08:56:06;80.17;;;19.13;;
4049;SDS011;2039;50.894;6.888;2022-07-23T08:58:32;78.87;;;18.10;;
4049;SDS011;2039;50.894;6.888;2022-07-23T09:00:59;79.73;;;21.10;;
4049;SDS011;2039;50.894;6.888;2022-07-23T09:03:26;78.13;;;18.60;;
4049;SDS011;2039;50.894;6.888;2022-07-23T09:06:00;79.90;;;21.00;;
4049;SDS011;2039;50.894;6.888;2022-07-23T09:08:35;82.57;;;20.30;;
4049;SDS011;2039;50.894;6.888;2022-07-23T09:11:04;80.60;;;23.60;;
4049;SDS011;2039;50.894;6.888;2022-07-23T09:13:38;81.07;;;22.33;;
4049;SDS011;2039;50.894;6.888;2022-07-23T09:16:18;80.77;;;22.83;;
4049;SDS011;2039;50.894;6.888;2022-07-23T09:18:52;77.30;;;18.40;;
4049;SDS011;2039;50.894;6.888;2022-07-23T09:21:23;83.70;;;23.83;;
4049;SDS011;2039;50.894;6.888;2022-07-23T09:24:03;79.70;;;24.43;;
4049;SDS011;2039;50.894;6.888;2022-07-23T09:29:20;84.27;;;21.33;;
4049;SDS011;2039;50.894;6.888;2022-07-23T09:32:00;82.93;;;25.10;;
4049;SDS011;2039;50.894;6.888;2022-07-23T09:34:31;79.90;;;20.40;;
4049;SDS011;2039;50.894;6.888;2022-07-23T09:37:13;84.07;;;22.17;;
4049;SDS011;2039;50.894;6.888;2022-07-23T09:39:41;79.77;;;16.53;;
4049;SDS011;2039;50.894;6.888;2022-07-23T09:42:14;80.90;;;17.57;;
4049;SDS011;2039;50.894;6.888;2022-07-23T09:44:50;77.27;;;14.90;;
4049;SDS011;2039;50.894;6.888;2022-07-23T09:47:20;82.73;;;16.60;;
4049;SDS011;2039;50.894;6.888;2022-07-23T09:52:46;82.83;;;14.27;;
4049;SDS011;2039;50.894;6.888;2022-07-23T09:55:13;80.17;;;14.77;;
4049;SDS011;2039;50.894;6.888;2022-07-23T09:57:40;81.37;;;15.97;;
4049;SDS011;2039;50.894;6.888;2022-07-23T10:00:07;82.27;;;15.67;;
4049;SDS011;2039;50.894;6.888;2022-07-23T10:02:35;104.37;;;15.63;;
4049;SDS011;2039;50.894;6.888;2022-07-23T10:05:03;78.90;;;13.17;;
4049;SDS011;2039;50.894;6.888;2022-07-23T10:07:34;79.60;;;13.13;;
4049;SDS011;2039;50.894;6.888;2022-07-23T10:10:03;77.93;;;13.43;;
4049;SDS011;2039;50.894;6.888;2022-07-23T10:12:29;76.30;;;11.70;;
4049;SDS011;2039;50.894;6.888;2022-07-23T10:15:02;79.13;;;13.17;;
4049;SDS011;2039;50.894;6.888;2022-07-23T10:17:32;77.33;;;13.40;;
4049;SDS011;2039;50.894;6.888;2022-07-23T10:19:58;79.60;;;15.87;;
4049;SDS011;2039;50.894;6.888;2022-07-23T10:36:20;72.77;;;11.47;;
4049;SDS011;2039;50.894;6.888;2022-07-23T10:39:22;70.97;;;7.03;;
4049;SDS011;2039;50.894;6.888;2022-07-23T10:42:07;74.10;;;8.70;;
4049;SDS011;2039;50.894;6.888;2022-07-23T10:44:41;73.10;;;7.57;;
4049;SDS011;2039;50.894;6.888;2022-07-23T10:47:09;71.20;;;7.23;;
4049;SDS011;2039;50.894;6.888;2022-07-23T10:49:41;70.60;;;6.70;;
4049;SDS011;2039;50.894;6.888;2022-07-23T10:54:46;72.97;;;7.17;;
4049;SDS011;2039;50.894;6.888;2022-07-23T10:57:15;72.60;;;6.57;;
4049;SDS011;2039;50.894;6.888;2022-07-23T11:02:31;72.37;;;7.83;;
4049;SDS011;2039;50.894;6.888;2022-07-23T11:05:04;71.10;;;7.43;;
4049;SDS011;2039;50.894;6.888;2022-07-23T11:07:33;70.93;;;5.97;;
4049;SDS011;2039;50.894;6.888;2022-07-23T11:10:00;76.20;;;6.43;;
4049;SDS011;2039;50.894;6.888;2022-07-23T11:15:06;70.87;;;6.13;;
4049;SDS011;2039;50.894;6.888;2022-07-23T11:17:39;73.00;;;6.03;;
4049;SDS011;2039;50.894;6.888;2022-07-23T11:20:25;70.70;;;5.73;;
4049;SDS011;2039;50.894;6.888;2022-07-23T11:22:52;70.70;;;7.60;;
4049;SDS011;2039;50.894;6.888;2022-07-23T11:27:49;70.57;;;7.03;;
4049;SDS011;2039;50.894;6.888;2022-07-23T11:32:51;71.87;;;7.70;;
4049;SDS011;2039;50.894;6.888;2022-07-23T11:35:25;71.20;;;7.87;;
4049;SDS011;2039;50.894;6.888;2022-07-23T11:37:53;73.53;;;7.77;;
4049;SDS011;2039;50.894;6.888;2022-07-23T11:40:27;73.83;;;7.10;;
4049;SDS011;2039;50.894;6.888;2022-07-23T11:42:57;72.50;;;5.30;;
4049;SDS011;2039;50.894;6.888;2022-07-23T11:45:26;69.07;;;5.17;;
4049;SDS011;2039;50.894;6.888;2022-07-23T11:47:57;72.73;;;7.10;;
4049;SDS011;2039;50.894;6.888;2022-07-23T11:50:23;69.90;;;5.77;;
4049;SDS011;2039;50.894;6.888;2022-07-23T11:52:50;70.97;;;6.20;;
4049;SDS011;2039;50.894;6.888;2022-07-23T11:55:17;67.70;;;4.10;;
4049;SDS011;2039;50.894;6.888;2022-07-23T11:57:44;70.07;;;5.23;;
4049;SDS011;2039;50.894;6.888;2022-07-23T12:02:42;69.73;;;4.87;;
4049;SDS011;2039;50.894;6.888;2022-07-23T12:05:13;73.57;;;5.03;;
4049;SDS011;2039;50.894;6.888;2022-07-23T12:07:44;68.80;;;4.50;;
4049;SDS011;2039;50.894;6.888;2022-07-23T12:12:51;68.93;;;4.90;;
4049;SDS011;2039;50.894;6.888;2022-07-23T12:15:19;72.20;;;4.20;;
4049;SDS011;2039;50.894;6.888;2022-07-23T12:17:56;70.87;;;5.40;;
4049;SDS011;2039;50.894;6.888;2022-07-23T12:20:24;69.10;;;5.40;;
4049;SDS011;2039;50.894;6.888;2022-07-23T12:23:03;69.90;;;4.53;;
4049;SDS011;2039;50.894;6.888;2022-07-23T12:25:32;70.57;;;4.70;;
4049;SDS011;2039;50.894;6.888;2022-07-23T12:30:31;70.17;;;5.43;;
4049;SDS011;2039;50.894;6.888;2022-07-23T12:32:58;68.37;;;4.60;;
4049;SDS011;2039;50.894;6.888;2022-07-23T12:35:33;68.27;;;4.17;;
4049;SDS011;2039;50.894;6.888;2022-07-23T12:38:00;68.97;;;4.23;;
4049;SDS011;2039;50.894;6.888;2022-07-23T12:43:03;69.27;;;4.90;;
4049;SDS011;2039;50.894;6.888;2022-07-23T12:45:46;69.00;;;4.27;;
4049;SDS011;2039;50.894;6.888;2022-07-23T12:48:39;68.77;;;4.23;;
4049;SDS011;2039;50.894;6.888;2022-07-23T12:51:25;68.47;;;3.83;;
4049;SDS011;2039;50.894;6.888;2022-07-23T12:53:58;68.40;;;4.23;;
4049;SDS011;2039;50.894;6.888;2022-07-23T12:56:33;68.87;;;3.67;;
4049;SDS011;2039;50.894;6.888;2022-07-23T13:01:35;71.23;;;4.67;;
4049;SDS011;2039;50.894;6.888;2022-07-23T13:04:09;69.70;;;4.20;;
4049;SDS011;2039;50.894;6.888;2022-07-23T13:06:37;69.97;;;4.33;;
4049;SDS011;2039;50.894;6.888;2022-07-23T13:09:04;69.30;;;4.50;;
4049;SDS011;2039;50.894;6.888;2022-07-23T13:11:31;68.10;;;4.00;;
4049;SDS011;2039;50.894;6.888;2022-07-23T13:13:57;69.57;;;4.17;;
4049;SDS011;2039;50.894;6.888;2022-07-23T13:16:25;67.87;;;3.80;;
4049;SDS011;2039;50.894;6.888;2022-07-23T13:18:55;70.77;;;3.97;;
4049;SDS011;2039;50.894;6.888;2022-07-23T13:21:24;68.87;;;3.80;;
4049;SDS011;2039;50.894;6.888;2022-07-23T13:23:50;69.90;;;3.70;;
4049;SDS011;2039;50.894;6.888;2022-07-23T13:26:16;68.40;;;4.00;;
4049;SDS011;2039;50.894;6.888;2022-07-23T13:28:42;69.97;;;4.70;;
4049;SDS011;2039;50.894;6.888;2022-07-23T13:31:08;69.63;;;4.40;;
4049;SDS011;2039;50.894;6.888;2022-07-23T13:33:34;71.07;;;4.40;;
4049;SDS011;2039;50.894;6.888;2022-07-23T13:36:00;68.40;;;4.23;;
4049;SDS011;2039;50.894;6.888;2022-07-23T13:38:25;68.60;;;3.90;;
4049;SDS011;2039;50.894;6.888;2022-07-23T13:40:52;68.97;;;4.27;;
4049;SDS011;2039;50.894;6.888;2022-07-23T13:43:19;68.37;;;3.63;;
4049;SDS011;2039;50.894;6.888;2022-07-23T13:45:47;67.67;;;3.70;;
4049;SDS011;2039;50.894;6.888;2022-07-23T13:48:14;71.40;;;4.00;;
4049;SDS011;2039;50.894;6.888;2022-07-23T13:50:40;67.50;;;3.50;;
4049;SDS011;2039;50.894;6.888;2022-07-23T13:53:08;68.37;;;4.00;;
4049;SDS011;2039;50.894;6.888;2022-07-23T13:55:36;69.20;;;4.67;;
4049;SDS011;2039;50.894;6.888;2022-07-23T13:58:02;68.60;;;3.80;;
4049;SDS011;2039;50.894;6.888;2022-07-23T14:00:29;68.60;;;4.40;;
4049;SDS011;2039;50.894;6.888;2022-07-23T14:02:58;68.20;;;4.30;;
4049;SDS011;2039;50.894;6.888;2022-07-23T14:05:24;70.37;;;4.70;;
4049;SDS011;2039;50.894;6.888;2022-07-23T14:07:51;68.10;;;4.10;;
4049;SDS011;2039;50.894;6.888;2022-07-23T14:10:18;67.77;;;3.60;;
4049;SDS011;2039;50.894;6.888;2022-07-23T14:12:45;68.97;;;4.83;;
4049;SDS011;2039;50.894;6.888;2022-07-23T14:15:12;68.97;;;4.03;;
4049;SDS011;2039;50.894;6.888;2022-07-23T14:17:39;68.87;;;4.07;;
4049;SDS011;2039;50.894;6.888;2022-07-23T14:20:07;69.10;;;4.07;;
4049;SDS011;2039;50.894;6.888;2022-07-23T14:22:34;68.00;;;4.10;;
4049;SDS011;2039;50.894;6.888;2022-07-23T14:25:00;68.23;;;3.43;;
4049;SDS011;2039;50.894;6.888;2022-07-23T14:27:27;70.80;;;4.00;;
4049;SDS011;2039;50.894;6.888;2022-07-23T14:29:53;67.27;;;3.30;;
4049;SDS011;2039;50.894;6.888;2022-07-23T14:32:19;68.30;;;3.30;;
4049;SDS011;2039;50.894;6.888;2022-07-23T14:34:45;68.30;;;3.77;;
4049;SDS011;2039;50.894;6.888;2022-07-23T14:37:11;68.90;;;3.70;;
4049;SDS011;2039;50.894;6.888;2022-07-23T14:39:38;69.83;;;4.83;;
4049;SDS011;2039;50.894;6.888;2022-07-23T14:42:04;70.00;;;4.80;;
4049;SDS011;2039;50.894;6.888;2022-07-23T14:44:31;70.73;;;4.30;;
4049;SDS011;2039;50.894;6.888;2022-07-23T14:46:58;68.07;;;3.80;;
4049;SDS011;2039;50.894;6.888;2022-07-23T14:49:25;69.47;;;4.10;;
4049;SDS011;2039;50.894;6.888;2022-07-23T14:51:51;67.57;;;3.00;;
4049;SDS011;2039;50.894;6.888;2022-07-23T14:54:17;71.00;;;3.67;;
4049;SDS011;2039;50.894;6.888;2022-07-23T14:56:44;68.27;;;3.77;;
4049;SDS011;2039;50.894;6.888;2022-07-23T14:59:10;68.80;;;3.73;;
4049;SDS011;2039;50.894;6.888;2022-07-23T15:01:36;69.60;;;4.00;;
4049;SDS011;2039;50.894;6.888;2022-07-23T15:04:03;70.10;;;4.10;;
4049;SDS011;2039;50.894;6.888;2022-07-23T15:06:30;68.20;;;3.67;;
4049;SDS011;2039;50.894;6.888;2022-07-23T15:08:56;70.40;;;5.20;;
4049;SDS011;2039;50.894;6.888;2022-07-23T15:11:21;69.47;;;4.13;;
4049;SDS011;2039;50.894;6.888;2022-07-23T15:13:47;70.60;;;5.83;;
4049;SDS011;2039;50.894;6.888;2022-07-23T15:16:13;67.50;;;4.30;;
4049;SDS011;2039;50.894;6.888;2022-07-23T15:18:39;74.07;;;5.70;;
4049;SDS011;2039;50.894;6.888;2022-07-23T15:21:05;70.03;;;4.30;;
4049;SDS011;2039;50.894;6.888;2022-07-23T15:23:31;68.60;;;3.93;;
4049;SDS011;2039;50.894;6.888;2022-07-23T15:25:57;68.87;;;4.30;;
4049;SDS011;2039;50.894;6.888;2022-07-23T15:28:23;67.67;;;3.57;;
4049;SDS011;2039;50.894;6.888;2022-07-23T15:30:49;67.87;;;3.67;;
4049;SDS011;2039;50.894;6.888;2022-07-23T15:33:17;67.40;;;3.60;;
4049;SDS011;2039;50.894;6.888;2022-07-23T15:35:43;68.37;;;3.40;;
4049;SDS011;2039;50.894;6.888;2022-07-23T15:38:08;70.00;;;4.20;;
4049;SDS011;2039;50.894;6.888;2022-07-23T15:40:34;66.87;;;3.17;;
4049;SDS011;2039;50.894;6.888;2022-07-23T15:43:00;68.67;;;4.27;;
4049;SDS011;2039;50.894;6.888;2022-07-23T15:45:27;69.00;;;4.47;;